This is the latest recevied weather packets stored in our database for station/object SQ6PCH-10. If no packets are shown the sender has not sent any weather packets the latest 10 day(s).
| Time | Temp. | Humidity | Pressure | Rain* | Wind** | Luminosity | Snow |
|---|---|---|---|---|---|---|---|
| 1777709870 | 24.44° C | 26% | 1010.3 hPa | - | - | - | - |
| 1777709270 | 23.89° C | 26% | 1010.5 hPa | - | - | - | - |
| 1777708670 | 22.78° C | 29% | 1010.5 hPa | - | - | - | - |
| 1777708070 | 21.67° C | 33% | 1010.4 hPa | - | - | - | - |
| 1777707470 | 21.67° C | 32% | 1010.5 hPa | - | - | - | - |
| 1777706869 | 20° C | 37% | 1010.5 hPa | - | - | - | - |
| 1777706269 | 17.78° C | 42% | 1010.4 hPa | - | - | - | - |
| 1777705669 | 16.67° C | 47% | 1010.3 hPa | - | - | - | - |
| 1777705069 | 16.11° C | 51% | 1010.4 hPa | - | - | - | - |
| 1777704469 | 15.56° C | 53% | 1010.4 hPa | - | - | - | - |
| 1777703868 | 14.44° C | 55% | 1010.4 hPa | - | - | - | - |
| 1777703268 | 13.89° C | 57% | 1010.5 hPa | - | - | - | - |
| 1777702668 | 12.78° C | 62% | 1010.4 hPa | - | - | - | - |
| 1777702068 | 11.67° C | 63% | 1010.4 hPa | - | - | - | - |
| 1777701468 | 11.11° C | 68% | 1010.4 hPa | - | - | - | - |
| 1777700868 | 10.56° C | 71% | 1010.4 hPa | - | - | - | - |
| 1777700267 | 10° C | 74% | 1010.4 hPa | - | - | - | - |
| 1777699667 | 8.89° C | 79% | 1010.4 hPa | - | - | - | - |
| 1777699067 | 8.33° C | 79% | 1010.4 hPa | - | - | - | - |
| 1777698467 | 7.78° C | 81% | 1010.3 hPa | - | - | - | - |
| 1777697867 | 6.67° C | 83% | 1010.2 hPa | - | - | - | - |
| 1777697267 | 6.11° C | 87% | 1010.2 hPa | - | - | - | - |
| 1777696666 | 5.56° C | 88% | 1010.3 hPa | - | - | - | - |
| 1777696066 | 5° C | 88% | 1010.3 hPa | - | - | - | - |
| 1777695466 | 5° C | 88% | 1010.2 hPa | - | - | - | - |
* Rain since midnight (hover to see other rain measurements)
** Current wind speed in m/s (hover to see current wind gust speed)